Time,TemperatureF,DewpointF,PressureIn,WindDirection,WindDirectionDegrees,WindSpeedMPH,WindSpeedGustMPH,Humidity,HourlyPrecipIn,Conditions,Clouds,dailyrainin,SoftwareType,DateUTC
2013-06-17 00:08:00,80.0,77.0,30.09,NW,314,0.0,0.0,91,0.00,,,0.00,weatherlink.com 1.10,2013-06-17 04:08:00,
2013-06-17 00:23:00,80.3,77.0,30.08,NW,314,0.0,0.0,90,0.00,,,0.00,weatherlink.com 1.10,2013-06-17 04:23:00,
2013-06-17 00:38:00,80.5,77.0,30.07,NW,314,0.0,0.0,90,0.00,,,0.00,weatherlink.com 1.10,2013-06-17 04:38:00,
2013-06-17 00:53:00,80.5,77.0,30.07,NW,314,0.0,0.0,90,0.00,,,0.00,weatherlink.com 1.10,2013-06-17 04:53:00,
2013-06-17 01:08:00,80.1,77.0,30.08,NW,314,1.0,1.0,90,0.00,,,0.00,weatherlink.com 1.10,2013-06-17 05:08:00,
2013-06-17 01:23:00,80.0,77.0,30.08,ENE,72,0.0,4.0,90,0.00,,,0.00,weatherlink.com 1.10,2013-06-17 05:23:00,
2013-06-17 01:38:00,79.6,77.0,30.08,ESE,117,1.0,4.0,90,0.00,,,0.00,weatherlink.com 1.10,2013-06-17 05:38:00,
2013-06-17 01:53:00,79.4,76.0,30.07,East,96,1.0,3.0,90,0.00,,,0.00,weatherlink.com 1.10,2013-06-17 05:53:00,
2013-06-17 02:08:00,79.0,76.0,30.06,East,97,0.0,1.0,90,0.00,,,0.00,weatherlink.com 1.10,2013-06-17 06:08:00,
2013-06-17 02:23:00,78.5,76.0,30.06,East,96,0.0,0.0,91,0.00,,,0.00,weatherlink.com 1.10,2013-06-17 06:23:00,
2013-06-17 02:53:00,77.7,76.0,30.04,East,96,0.0,0.0,93,0.00,,,0.00,weatherlink.com 1.10,2013-06-17 06:53:00,
2013-06-17 03:08:00,77.2,75.0,30.03,East,95,0.0,0.0,94,0.00,,,0.00,weatherlink.com 1.10,2013-06-17 07:08:00,
2013-06-17 03:23:00,76.7,75.0,30.03,East,95,0.0,0.0,95,0.00,,,0.00,weatherlink.com 1.10,2013-06-17 07:23:00,
2013-06-17 03:38:00,76.6,75.0,30.03,East,96,0.0,0.0,96,0.00,,,0.00,weatherlink.com 1.10,2013-06-17 07:38:00,
2013-06-17 03:53:00,76.6,75.0,30.03,East,95,0.0,0.0,96,0.00,,,0.00,weatherlink.com 1.10,2013-06-17 07:53:00,
2013-06-17 04:08:00,76.4,75.0,30.03,East,96,0.0,0.0,96,0.00,,,0.00,weatherlink.com 1.10,2013-06-17 08:08:00,
2013-06-17 04:23:00,76.3,75.0,30.03,East,97,0.0,0.0,97,0.00,,,0.00,weatherlink.com 1.10,2013-06-17 08:23:00,
2013-06-17 04:38:00,76.4,76.0,30.04,East,97,0.0,0.0,97,0.00,,,0.00,weatherlink.com 1.10,2013-06-17 08:38:00,
2013-06-17 04:53:00,76.5,76.0,30.04,East,97,0.0,0.0,97,0.00,,,0.00,weatherlink.com 1.10,2013-06-17 08:53:00,
2013-06-17 05:08:00,77.1,76.0,30.05,South,171,0.0,2.0,97,0.00,,,0.00,weatherlink.com 1.10,2013-06-17 09:08:00,
2013-06-17 05:23:00,77.6,76.0,30.05,SSE,162,0.0,1.0,96,0.00,,,0.00,weatherlink.com 1.10,2013-06-17 09:23:00,
2013-06-17 05:41:00,77.9,76.0,30.05,SSE,161,0.0,1.0,95,0.00,,,0.00,weatherlink.com 1.10,2013-06-17 09:41:00,
2013-06-17 06:01:00,78.1,77.0,30.05,SSE,161,0.0,1.0,95,0.00,,,0.00,weatherlink.com 1.10,2013-06-17 10:01:00,
2013-06-17 06:19:00,77.9,76.0,30.06,SSE,161,0.0,0.0,95,0.00,,,0.00,weatherlink.com 1.10,2013-06-17 10:19:00,
2013-06-17 06:37:00,77.8,76.0,30.06,SSE,161,0.0,1.0,95,0.00,,,0.00,weatherlink.com 1.10,2013-06-17 10:37:00,
2013-06-17 06:55:00,77.9,76.0,30.07,SSE,168,0.0,2.0,95,0.00,,,0.00,weatherlink.com 1.10,2013-06-17 10:55:00,
2013-06-17 07:15:00,79.0,77.0,30.06,South,169,0.0,0.0,94,0.00,,,0.00,weatherlink.com 1.10,2013-06-17 11:15:00,
2013-06-17 07:33:00,80.8,78.0,30.06,South,169,0.0,0.0,92,0.00,,,0.00,weatherlink.com 1.10,2013-06-17 11:33:00,
2013-06-17 07:51:00,82.1,79.0,30.06,South,170,0.0,1.0,89,0.00,,,0.00,weatherlink.com 1.10,2013-06-17 11:51:00,
2013-06-17 08:11:00,83.9,80.0,30.07,SSW,205,0.0,1.0,87,0.00,,,0.00,weatherlink.com 1.10,2013-06-17 12:11:00,
2013-06-17 08:29:00,86.5,78.0,30.07,SSW,205,1.0,1.0,76,0.00,,,0.00,weatherlink.com 1.10,2013-06-17 12:29:00,
2013-06-17 08:47:00,86.7,77.0,30.07,WSW,243,0.0,1.0,73,0.00,,,0.00,weatherlink.com 1.10,2013-06-17 12:47:00,
2013-06-17 09:03:00,88.2,78.0,30.07,SW,224,0.0,2.0,71,0.00,,,0.00,weatherlink.com 1.10,2013-06-17 13:03:00,
2013-06-17 09:20:00,88.6,77.0,30.07,SSW,212,2.0,4.0,69,0.00,,,0.00,weatherlink.com 1.10,2013-06-17 13:20:00,
2013-06-17 09:40:00,88.5,79.0,30.07,West,271,1.0,4.0,73,0.00,,,0.00,weatherlink.com 1.10,2013-06-17 13:40:00,
2013-06-17 09:57:00,90.0,79.0,30.07,SSW,205,0.0,2.0,70,0.00,,,0.00,weatherlink.com 1.10,2013-06-17 13:57:00,
2013-06-17 10:13:00,88.5,78.0,30.07,SW,228,2.0,6.0,71,0.00,,,0.00,weatherlink.com 1.10,2013-06-17 14:13:00,
2013-06-17 10:28:00,89.0,77.0,30.07,SSW,198,3.0,4.0,68,0.00,,,0.00,weatherlink.com 1.10,2013-06-17 14:28:00,
2013-06-17 10:43:00,89.8,77.0,30.07,SE,138,2.0,7.0,67,0.00,,,0.00,weatherlink.com 1.10,2013-06-17 14:43:00,
2013-06-17 10:58:00,90.6,78.0,30.07,SE,135,3.0,5.0,67,0.00,,,0.00,weatherlink.com 1.10,2013-06-17 14:58:00,
2013-06-17 11:13:00,90.5,77.0,30.07,West,278,1.0,4.0,65,0.00,,,0.00,weatherlink.com 1.10,2013-06-17 15:13:00,
2013-06-17 11:28:00,91.5,77.0,30.07,West,268,1.0,3.0,63,0.00,,,0.00,weatherlink.com 1.10,2013-06-17 15:28:00,
2013-06-17 11:43:00,91.5,77.0,30.07,WSW,243,1.0,6.0,62,0.00,,,0.00,weatherlink.com 1.10,2013-06-17 15:43:00,
2013-06-17 11:57:00,91.9,77.0,30.07,SW,227,1.0,4.0,61,0.00,,,0.00,weatherlink.com 1.10,2013-06-17 15:57:00,
2013-06-17 12:12:00,91.5,78.0,30.07,SSW,207,4.0,8.0,64,0.00,,,0.00,weatherlink.com 1.10,2013-06-17 16:12:00,
2013-06-17 12:28:00,92.0,77.0,30.07,SSW,192,2.0,4.0,62,0.00,,,0.00,weatherlink.com 1.10,2013-06-17 16:28:00,
2013-06-17 12:43:00,92.2,78.0,30.07,WSW,251,2.0,3.0,64,0.00,,,0.00,weatherlink.com 1.10,2013-06-17 16:43:00,
2013-06-17 12:58:00,92.3,78.0,30.07,NNE,32,1.0,8.0,63,0.00,,,0.00,weatherlink.com 1.10,2013-06-17 16:58:00,
2013-06-17 13:18:00,92.5,78.0,30.07,NW,323,1.0,7.0,63,0.00,,,0.00,weatherlink.com 1.10,2013-06-17 17:18:00,
2013-06-17 13:36:00,92.7,77.0,30.07,SSE,161,2.0,7.0,61,0.00,,,0.00,weatherlink.com 1.10,2013-06-17 17:36:00,
2013-06-17 13:54:00,92.8,78.0,30.06,WNW,300,0.0,7.0,63,0.00,,,0.00,weatherlink.com 1.10,2013-06-17 17:54:00,
2013-06-17 14:14:00,92.8,77.0,30.05,WNW,295,1.0,7.0,61,0.00,,,0.00,weatherlink.com 1.10,2013-06-17 18:14:00,
2013-06-17 14:32:00,92.3,76.0,30.05,West,269,1.0,7.0,60,0.00,,,0.00,weatherlink.com 1.10,2013-06-17 18:32:00,
2013-06-17 14:50:00,92.8,78.0,30.05,West,274,1.0,6.0,62,0.00,,,0.00,weatherlink.com 1.10,2013-06-17 18:50:00,
2013-06-17 15:10:00,92.4,77.0,30.04,SW,236,2.0,4.0,60,0.00,,,0.00,weatherlink.com 1.10,2013-06-17 19:10:00,
2013-06-17 15:28:00,92.8,77.0,30.04,WSW,240,1.0,5.0,61,0.00,,,0.00,weatherlink.com 1.10,2013-06-17 19:28:00,
2013-06-17 15:46:00,91.9,77.0,30.04,WNW,297,2.0,7.0,62,0.00,,,0.00,weatherlink.com 1.10,2013-06-17 19:46:00,
2013-06-17 16:05:00,92.5,76.0,30.04,NNW,337,2.0,6.0,59,0.00,,,0.00,weatherlink.com 1.10,2013-06-17 20:05:00,
2013-06-17 16:23:00,92.7,76.0,30.03,West,266,2.0,4.0,59,0.00,,,0.00,weatherlink.com 1.10,2013-06-17 20:23:00,
2013-06-17 16:41:00,93.1,77.0,30.02,WNW,299,2.0,3.0,59,0.00,,,0.00,weatherlink.com 1.10,2013-06-17 20:41:00,
2013-06-17 17:01:00,92.5,78.0,30.01,West,262,1.0,4.0,62,0.00,,,0.00,weatherlink.com 1.10,2013-06-17 21:01:00,
2013-06-17 17:19:00,92.0,77.0,30.01,SW,225,2.0,4.0,61,0.00,,,0.00,weatherlink.com 1.10,2013-06-17 21:19:00,
2013-06-17 17:37:00,90.9,78.0,30.01,West,259,2.0,4.0,66,0.00,,,0.00,weatherlink.com 1.10,2013-06-17 21:37:00,
2013-06-17 17:57:00,90.0,78.0,30.01,WSW,256,2.0,4.0,68,0.00,,,0.00,weatherlink.com 1.10,2013-06-17 21:57:00,
2013-06-17 18:15:00,89.7,77.0,30.01,NNW,330,0.0,3.0,67,0.00,,,0.00,weatherlink.com 1.10,2013-06-17 22:15:00,
2013-06-17 18:33:00,88.8,77.0,30.01,NNW,344,1.0,3.0,69,0.00,,,0.00,weatherlink.com 1.10,2013-06-17 22:33:00,
2013-06-17 18:53:00,87.3,77.0,30.02,NW,314,1.0,4.0,72,0.00,,,0.00,weatherlink.com 1.10,2013-06-17 22:53:00,
2013-06-17 19:11:00,86.8,78.0,30.02,NNE,19,2.0,3.0,75,0.00,,,0.00,weatherlink.com 1.10,2013-06-17 23:11:00,
2013-06-17 19:28:00,86.3,78.0,30.02,NW,312,1.0,4.0,76,0.00,,,0.00,weatherlink.com 1.10,2013-06-17 23:28:00,
2013-06-17 19:43:00,85.5,78.0,30.03,WSW,244,1.0,3.0,77,0.00,,,0.00,weatherlink.com 1.10,2013-06-17 23:43:00,
2013-06-17 19:58:00,84.6,77.0,30.03,WNW,290,0.0,4.0,79,0.00,,,0.00,weatherlink.com 1.10,2013-06-17 23:58:00,
2013-06-17 20:13:00,83.8,77.0,30.03,West,262,0.0,2.0,79,0.00,,,0.00,weatherlink.com 1.10,2013-06-18 00:13:00,
2013-06-17 20:28:00,83.1,76.0,30.04,West,281,0.0,2.0,80,0.00,,,0.00,weatherlink.com 1.10,2013-06-18 00:28:00,
2013-06-17 20:43:00,82.7,76.0,30.04,West,264,0.0,1.0,80,0.00,,,0.00,weatherlink.com 1.10,2013-06-18 00:43:00,
2013-06-17 20:58:00,82.3,76.0,30.04,West,265,0.0,1.0,81,0.00,,,0.00,weatherlink.com 1.10,2013-06-18 00:58:00,
2013-06-17 21:13:00,82.0,76.0,30.05,West,264,0.0,1.0,82,0.00,,,0.00,weatherlink.com 1.10,2013-06-18 01:13:00,
2013-06-17 21:28:00,81.6,76.0,30.05,West,264,0.0,0.0,82,0.00,,,0.00,weatherlink.com 1.10,2013-06-18 01:28:00,
2013-06-17 21:43:00,81.5,76.0,30.05,West,265,0.0,1.0,82,0.00,,,0.00,weatherlink.com 1.10,2013-06-18 01:43:00,
2013-06-17 21:58:00,81.5,76.0,30.05,NW,305,1.0,2.0,83,0.00,,,0.00,weatherlink.com 1.10,2013-06-18 01:58:00,
2013-06-17 22:13:00,81.3,76.0,30.05,WSW,243,0.0,1.0,84,0.00,,,0.00,weatherlink.com 1.10,2013-06-18 02:13:00,
2013-06-17 22:28:00,81.0,76.0,30.06,WSW,251,0.0,1.0,84,0.00,,,0.00,weatherlink.com 1.10,2013-06-18 02:28:00,
2013-06-17 22:43:00,80.7,76.0,30.06,WSW,251,0.0,0.0,85,0.00,,,0.00,weatherlink.com 1.10,2013-06-18 02:43:00,
2013-06-17 22:58:00,80.3,76.0,30.07,WSW,251,0.0,0.0,85,0.00,,,0.00,weatherlink.com 1.10,2013-06-18 02:58:00,
2013-06-17 23:13:00,79.9,75.0,30.07,WSW,251,0.0,0.0,86,0.00,,,0.00,weatherlink.com 1.10,2013-06-18 03:13:00,
2013-06-17 23:28:00,79.6,76.0,30.07,WSW,251,0.0,0.0,87,0.00,,,0.00,weatherlink.com 1.10,2013-06-18 03:28:00,
2013-06-17 23:43:00,79.2,75.0,30.07,WSW,251,0.0,0.0,87,0.00,,,0.00,weatherlink.com 1.10,2013-06-18 03:43:00,
2013-06-17 23:58:00,78.8,75.0,30.07,WSW,251,0.0,0.0,88,0.00,,,0.00,weatherlink.com 1.10,2013-06-18 03:58:00,